• Join FlightAware (Why Join?)
  • Login
  • US Flag 
03:26AM EDT


 

Airport Tracker/Info


-or-


 

Live Flight TrackerFlight Track Log ✈ N960DL ✈ 18-Apr-2013 ✈ KDAY - KATL

Flight Track Log - Related Links

Times and Time Zones

All times are in EDT time to prevent confusion due to time zone crossing. See the N960DL flight status page for this flight to view local times or setup timezone preferences in your user account.

Time Position Orientation Groundspeed Altitude Reporting Facility
EDT Latitude Longitude Course Direction KTS MPH feet Rate Location/Type
08:12PM 39.8628 -84.2994 231° Southwest 191 220 3,200  Level Indianapolis Center
08:14PM 39.6911 -84.5596 241° Southwest  Level FlightAware Approximate
08:14PM 39.8181 -84.3761 233° Southwest 226 260 6,800  Level Indianapolis Center
08:15PM 39.6278 -84.6815 232° Southwest  Level FlightAware Approximate
08:15PM 39.7772 -84.4481 234° Southwest 237 273 9,600  Level Indianapolis Center
08:16PM 39.5211 -84.7000 180° South  Level FlightAware Approximate
08:16PM 39.7319 -84.5206 231° Southwest 247 284 12,300  Level Indianapolis Center
08:17PM 39.4075 -84.7000 180° South  Level FlightAware Approximate
08:17PM 39.6544 -84.5564 200° South 288 331 13,400  Level Indianapolis Center
08:18PM 39.5578 -84.5794 190° South 344 396 15,400 2,040 Climbing Indianapolis Center
08:19PM 39.4564 -84.6028 190° South 363 418 17,600 2,100 Climbing Indianapolis Center
08:20PM 39.3528 -84.6269 190° South 373 429 19,700 2,160 Climbing Indianapolis Center
08:21PM 39.2228 -84.6547 189° South 397 457 22,100 2,400 Climbing Indianapolis Center
08:22PM 39.1186 -84.6783 190° South 380 437 24,700 1,740 Climbing Indianapolis Center
08:23PM 39.0158 -84.6922 186° South 374 430 25,700 1,080 Climbing Indianapolis Center
08:24PM 38.9219 -84.6058 144° Southeast 418 481 27,000 600 Climbing Indianapolis Center
08:25PM 38.8317 -84.5072 140° Southeast 424 488 27,000 -60 Level Indianapolis Center
08:26PM 38.7342 -84.4042 140° Southeast 447 514 26,900  Descending Indianapolis Center
08:27PM 38.6311 -84.2942 140° Southeast 458 527 27,000 480 Climbing Indianapolis Center
08:28PM 38.5297 -84.1994 144° Southeast 452 520 27,900 900 Climbing Indianapolis Center
08:29PM 38.4264 -84.1036 144° Southeast 459 528 28,900 480 Climbing Indianapolis Center
08:30PM 38.3236 -84.0083 144° Southeast 457 526 29,000  Climbing Indianapolis Center
08:31PM 38.2206 -83.9122 144° Southeast 458 527 29,000  Level Indianapolis Center
08:32PM 38.0992 -83.8000 144° Southeast 461 531 29,000  Level Indianapolis Center
08:33PM 37.9958 -83.7039 144° Southeast 460 529 29,000  Level Indianapolis Center
08:34PM 37.8886 -83.6053 144° Southeast 471 542 29,000  Level Indianapolis Center
08:35PM 37.7783 -83.5042 144° Southeast 483 556 29,000  Level Indianapolis Center
08:36PM 37.6683 -83.4044 144° Southeast 487 560 29,000  Level Indianapolis Center
08:37PM 37.5578 -83.3031 144° Southeast 489 563 29,000  Level Indianapolis Center
08:38PM 37.4478 -83.2036 144° Southeast 486 559 29,000  Level Indianapolis Center
08:39PM 37.3194 -83.0875 144° Southeast 485 558 29,000  Level Indianapolis Center
08:40PM 37.1972 -83.0306 160° South 475 547 29,000  Level Indianapolis Center
08:41PM 37.0686 -83.0325 181° South 464 534 29,000  Level Indianapolis Center
08:42PM 36.9411 -83.0344 181° South 465 535 29,000  Level Indianapolis Center
08:43PM 36.8069 -83.0406 182° South 475 547 29,000  Level Atlanta Center
08:44PM 36.6778 -83.0369 179° South 475 547 29,000  Level Atlanta Center
08:45PM 36.5483 -83.0386 181° South 475 547 29,000 -180 Level Atlanta Center
08:46PM 36.4214 -83.0403 181° South 469 540 28,700 -600 Descending Atlanta Center
08:47PM 36.2900 -83.0394 180° South 469 540 27,800 -720 Descending Atlanta Center
08:48PM 36.1689 -83.0433 181° South 451 519 27,300 -420 Descending Atlanta Center
08:49PM 36.0481 -83.0422 180° South 446 513 27,000 -180 Descending Atlanta Center
08:50PM 35.9292 -83.0489 183° South 436 502 27,000  Level Atlanta Center
08:51PM 35.8167 -83.0886 196° South 424 488 27,000  Level Atlanta Center
08:52PM 35.7067 -83.1386 200° South 419 482 27,000  Level Atlanta Center
08:53PM 35.5881 -83.1933 201° Southwest 449 517 27,000 -60 Level Atlanta Center
08:54PM 35.4675 -83.2508 201° Southwest 463 533 26,900 -720 Descending Atlanta Center
08:55PM 35.3467 -83.3003 198° South 463 533 25,600 -1,500 Descending Atlanta Center
08:56PM 35.2303 -83.3547 201° Southwest 463 533 24,000 -840 Descending Atlanta Center
08:57PM 35.0969 -83.4117 199° South 468 539 24,000  Level Atlanta Center
08:58PM 34.9742 -83.4658 200° South 468 539 24,000  Level Atlanta Center
08:59PM 34.8514 -83.5200 200° South 468 539 24,000  Level Atlanta Center
09:00PM 34.7325 -83.5711 199° South 468 539 24,000  Level Atlanta Center
09:01PM 34.6097 -83.6247 200° South 465 535 24,000 -540 Level Atlanta Center
09:02PM 34.4908 -83.6758 200° South 465 535 23,000 -1,200 Descending Atlanta Center
09:03PM 34.3761 -83.7242 199° South 457 526 21,700 -1,920 Descending Atlanta Center
09:04PM 34.2636 -83.7700 199° South 437 503 19,200 -2,640 Descending Atlanta Center
09:05PM 34.1592 -83.8178 201° Southwest 416 479 16,500 -2,640 Descending Atlanta Center
09:06PM 34.0572 -83.8758 205° Southwest 407 468 14,000 -1,740 Descending Atlanta Center
09:07PM 33.9819 -83.9586 222° Southwest 379 436 13,100 -1,020 Descending Atlanta Center
09:08PM 33.9175 -84.0264 221° Southwest 372 428 12,000 -840 Descending Atlanta Center
09:09PM 33.8833 -84.0500 210° Southwest 341 392 12,000 -120 Level Atlanta TRACON
09:09PM 33.8444 -84.1039 229° Southwest 353 406 11,900  Descending Atlanta Center
09:10PM 33.7753 -84.1489 208° Southwest 318 366 12,000 60 Climbing Atlanta Center
09:11PM 33.7500 -84.1667 210° Southwest 279 321 12,000  Level Atlanta TRACON
09:12PM 33.7333 -84.2500 256° West 278 320 12,000 -300 Level Atlanta TRACON
09:13PM 33.7333 -84.3333 270° West 246 283 11,500 -1,020 Descending Atlanta TRACON
09:14PM 33.7333 -84.4167 270° West 241 277 10,000 -1,440 Descending Atlanta TRACON
09:15PM 33.7333 -84.4833 270° West 232 267 8,800 -1,440 Descending Atlanta TRACON
09:16PM 33.7333 -84.5667 270° West 215 247 7,200 -1,860 Descending Atlanta TRACON
09:17PM 33.7167 -84.6333 253° West 220 253 4,900 -1,560 Descending Atlanta TRACON
09:18PM 33.6667 -84.6167 164° South 188 216 4,000 -840 Descending Atlanta TRACON